Time;durP1;ratioP1;P1;durP2;ratioP2;P2;SDS_P1;SDS_P2;PMS_P1;PMS_P2;Temp;Humidity;BMP_temperature;BMP_pressure;BME280_temperature;BME280_humidity;BME280_pressure;Samples;Min_cycle;Max_cycle;Signal;HPM_P1;HPM_P2
2022/03/07 00:01:25;;;;;;;13.85;12.45;;;2.90;99.90;;;;;;5073648;28;20208;-69
2022/03/07 00:03:55;;;;;;;13.05;11.73;;;2.90;99.90;;;;;;5074370;28;20234;-69
2022/03/07 00:06:23;;;;;;;13.30;12.00;;;2.90;99.90;;;;;;5074165;28;20231;-69
2022/03/07 00:08:49;;;;;;;13.82;12.52;;;2.90;99.90;;;;;;5074612;28;20204;-70
2022/03/07 00:11:17;;;;;;;13.30;12.20;;;2.80;99.90;;;;;;5074396;28;20204;-69
2022/03/07 00:13:43;;;;;;;14.77;12.07;;;2.80;99.90;;;;;;5074133;28;20208;-69
2022/03/07 00:16:10;;;;;;;12.40;11.40;;;2.80;99.90;;;;;;5074315;28;20718;-69
2022/03/07 00:18:37;;;;;;;12.98;11.88;;;2.80;99.90;;;;;;5074864;28;20195;-68
2022/03/07 00:21:06;;;;;;;13.68;12.40;;;2.70;99.90;;;;;;5072793;28;20264;-69
2022/03/07 00:23:32;;;;;;;13.05;12.05;;;2.70;99.90;;;;;;5072613;28;20682;-69
2022/03/07 00:25:59;;;;;;;13.77;12.57;;;2.60;99.90;;;;;;5072501;28;20207;-69
2022/03/07 00:28:25;;;;;;;13.52;12.32;;;2.60;99.90;;;;;;5073138;28;20199;-69
2022/03/07 00:30:52;;;;;;;14.32;12.77;;;2.70;99.90;;;;;;5073062;28;20208;-69
2022/03/07 00:33:18;;;;;;;13.95;12.73;;;2.60;99.90;;;;;;5072900;28;20256;-69
2022/03/07 00:35:44;;;;;;;13.07;11.77;;;2.50;99.90;;;;;;5072766;28;20210;-69
2022/03/07 00:38:11;;;;;;;12.65;11.65;;;2.50;99.90;;;;;;5072658;28;20671;-69
2022/03/07 00:40:37;;;;;;;13.18;12.02;;;2.50;99.90;;;;;;5071988;28;20207;-69
2022/03/07 00:43:10;;;;;;;12.77;11.55;;;2.50;99.90;;;;;;5072550;28;20203;-69
2022/03/07 00:45:36;;;;;;;13.25;12.05;;;2.60;99.90;;;;;;5072987;28;20266;-69
2022/03/07 00:48:04;;;;;;;13.52;12.43;;;2.50;99.90;;;;;;5071686;28;20321;-68
2022/03/07 00:50:31;;;;;;;13.02;11.82;;;2.40;99.90;;;;;;5072966;28;20200;-69
2022/03/07 00:52:58;;;;;;;13.30;12.05;;;2.40;99.90;;;;;;5072414;28;20465;-69
2022/03/07 00:55:24;;;;;;;12.45;11.35;;;2.40;99.90;;;;;;5072796;28;20310;-69
2022/03/07 00:57:51;;;;;;;12.05;11.15;;;2.40;99.90;;;;;;5072444;28;20442;-70
2022/03/07 01:00:17;;;;;;;13.20;12.10;;;2.40;99.90;;;;;;5072414;28;20189;-69
2022/03/07 01:02:44;;;;;;;12.35;11.35;;;2.40;99.90;;;;;;5072569;28;20196;-69
2022/03/07 01:05:10;;;;;;;12.23;11.05;;;2.40;99.90;;;;;;5072175;28;20699;-68
2022/03/07 01:07:36;;;;;;;12.88;11.35;;;2.30;99.90;;;;;;5072271;28;20715;-69
2022/03/07 01:10:03;;;;;;;13.27;11.95;;;2.40;99.90;;;;;;5072564;28;20353;-69
2022/03/07 01:12:29;;;;;;;12.15;10.43;;;2.40;99.90;;;;;;5072477;28;20208;-70
2022/03/07 01:14:56;;;;;;;12.65;11.65;;;2.30;99.90;;;;;;5072322;28;20208;-69
2022/03/07 01:17:22;;;;;;;11.95;11.05;;;2.30;99.90;;;;;;5072214;28;20288;-69
2022/03/07 01:19:49;;;;;;;12.00;10.85;;;2.30;99.90;;;;;;5072272;28;20265;-69
2022/03/07 01:22:15;;;;;;;12.60;11.52;;;2.30;99.90;;;;;;5074863;28;20200;-69
2022/03/07 01:24:41;;;;;;;13.10;11.82;;;2.20;99.90;;;;;;5078033;28;20196;-68
2022/03/07 01:27:08;;;;;;;13.20;12.00;;;2.20;99.90;;;;;;5077883;28;20204;-68
2022/03/07 01:29:35;;;;;;;12.27;11.27;;;2.20;99.90;;;;;;5077760;28;20567;-68
2022/03/07 01:32:01;;;;;;;12.48;11.40;;;2.20;99.90;;;;;;5076860;28;20225;-68
2022/03/07 01:34:28;;;;;;;12.45;11.25;;;2.10;99.90;;;;;;5076388;28;20621;-68
2022/03/07 01:36:54;;;;;;;12.20;11.10;;;2.10;99.90;;;;;;5077190;28;20673;-68
2022/03/07 01:39:21;;;;;;;15.45;11.75;;;2.10;99.90;;;;;;5077685;28;20204;-68
2022/03/07 01:41:49;;;;;;;12.77;11.48;;;2.00;99.90;;;;;;5078827;28;20805;-68
2022/03/07 01:44:20;;;;;;;10.98;10.07;;;2.00;99.90;;;;;;5077164;28;20249;-69
2022/03/07 01:46:47;;;;;;;12.85;11.45;;;1.90;99.90;;;;;;5078207;28;20186;-68
2022/03/07 01:49:14;;;;;;;12.70;11.60;;;1.90;99.90;;;;;;5077123;28;20211;-68
2022/03/07 01:51:45;;;;;;;12.15;11.13;;;1.90;99.90;;;;;;5077035;28;20203;-68
2022/03/07 01:54:16;;;;;;;12.05;11.05;;;1.90;99.90;;;;;;5077191;28;20679;-68
2022/03/07 01:56:45;;;;;;;12.32;11.27;;;1.90;99.90;;;;;;5076661;28;20277;-68
2022/03/07 01:59:28;;;;;;;12.15;11.15;;;1.80;99.90;;;;;;5076356;28;20586;-69
2022/03/07 02:01:55;;;;;;;12.30;11.13;;;1.70;99.90;;;;;;5076450;28;20528;-68
2022/03/07 02:04:22;;;;;;;12.88;11.63;;;1.60;99.90;;;;;;5075956;28;20214;-68
2022/03/07 02:06:49;;;;;;;12.60;11.50;;;1.60;99.90;;;;;;5076676;28;20269;-68
2022/03/07 02:09:16;;;;;;;11.57;10.48;;;1.50;99.90;;;;;;5077348;28;20204;-68
2022/03/07 02:11:43;;;;;;;12.20;11.10;;;1.50;99.90;;;;;;5076799;28;20207;-68
2022/03/07 02:14:22;;;;;;;13.40;12.10;;;1.50;99.90;;;;;;5077121;28;20204;-68
2022/03/07 02:16:49;;;;;;;11.70;10.82;;;1.50;99.90;;;;;;5076989;28;20571;-68
2022/03/07 02:19:16;;;;;;;11.85;10.98;;;1.40;99.90;;;;;;5076660;28;20655;-68
2022/03/07 02:21:52;;;;;;;12.23;11.23;;;1.40;99.90;;;;;;5076575;28;20192;-68
2022/03/07 02:24:19;;;;;;;11.45;10.63;;;1.30;99.90;;;;;;5077392;28;20203;-69
2022/03/07 02:27:00;;;;;;;13.82;12.63;;;1.30;99.90;;;;;;5077107;28;20216;-68
2022/03/07 02:29:28;;;;;;;11.52;10.55;;;1.30;99.90;;;;;;5076816;28;20188;-68
2022/03/07 02:31:54;;;;;;;13.07;11.95;;;1.20;99.90;;;;;;5076809;28;20222;-68
2022/03/07 02:34:22;;;;;;;13.38;12.07;;;1.20;99.90;;;;;;5076583;28;20204;-68
2022/03/07 02:36:48;;;;;;;12.13;11.13;;;1.10;99.90;;;;;;5076111;28;20208;-68
2022/03/07 02:39:15;;;;;;;11.52;10.63;;;1.10;99.90;;;;;;5076217;28;20208;-68
2022/03/07 02:41:42;;;;;;;12.80;11.70;;;1.00;99.90;;;;;;5076512;28;20269;-68
2022/03/07 02:44:09;;;;;;;12.50;11.35;;;1.00;99.90;;;;;;5076927;28;20200;-68
2022/03/07 02:46:35;;;;;;;13.25;12.00;;;0.90;99.90;;;;;;5076265;28;20235;-69
2022/03/07 02:49:03;;;;;;;13.90;12.70;;;0.90;99.90;;;;;;5075828;28;20207;-68
2022/03/07 02:51:29;;;;;;;13.10;12.00;;;0.90;99.90;;;;;;5075056;28;20199;-68
2022/03/07 02:53:56;;;;;;;12.77;11.68;;;0.80;99.90;;;;;;5076029;28;20200;-68
2022/03/07 02:56:22;;;;;;;13.40;12.25;;;0.80;99.90;;;;;;5073817;28;20720;-68
2022/03/07 02:58:48;;;;;;;14.23;12.52;;;0.70;99.90;;;;;;5073827;28;20207;-68
2022/03/07 03:01:15;;;;;;;13.13;11.93;;;0.80;99.90;;;;;;5073790;28;20720;-68
2022/03/07 03:03:42;;;;;;;13.95;12.55;;;0.70;99.90;;;;;;5074129;28;20222;-68
2022/03/07 03:06:09;;;;;;;14.02;12.50;;;0.60;99.90;;;;;;5072601;28;20232;-68
2022/03/07 03:08:36;;;;;;;14.13;12.73;;;0.60;99.90;;;;;;5074085;28;20214;-68
2022/03/07 03:11:03;;;;;;;14.02;12.82;;;0.60;99.90;;;;;;5074441;28;20272;-68
2022/03/07 03:13:29;;;;;;;14.75;12.60;;;0.60;99.90;;;;;;5074042;28;20196;-68
2022/03/07 03:15:56;;;;;;;13.75;12.35;;;0.50;99.90;;;;;;5073560;28;20196;-68
2022/03/07 03:18:23;;;;;;;14.30;13.00;;;0.50;99.90;;;;;;5073276;28;20623;-68
2022/03/07 03:20:51;;;;;;;15.02;13.52;;;0.40;99.90;;;;;;5073669;28;20207;-68
2022/03/07 03:23:19;;;;;;;13.90;12.70;;;0.40;99.90;;;;;;5073405;28;20225;-68
2022/03/07 03:25:46;;;;;;;15.45;13.82;;;0.40;99.90;;;;;;5073278;28;20625;-71
2022/03/07 03:28:12;;;;;;;15.93;14.23;;;0.30;99.90;;;;;;5073462;28;20216;-68
2022/03/07 03:30:39;;;;;;;14.40;13.00;;;0.30;99.90;;;;;;5073360;28;20197;-68
2022/03/07 03:33:05;;;;;;;14.05;12.55;;;0.30;99.90;;;;;;5073120;28;20685;-68
2022/03/07 03:35:36;;;;;;;14.88;13.38;;;0.20;99.90;;;;;;5073403;28;20560;-68
2022/03/07 03:38:03;;;;;;;15.20;13.60;;;0.30;99.90;;;;;;5073512;28;20546;-68
2022/03/07 03:40:30;;;;;;;15.05;13.55;;;0.30;99.90;;;;;;5073076;28;20204;-68
2022/03/07 03:42:57;;;;;;;16.45;13.75;;;0.30;99.90;;;;;;5073344;28;20223;-68
2022/03/07 03:45:23;;;;;;;14.55;13.05;;;0.30;99.90;;;;;;5071255;28;20204;-68
2022/03/07 03:47:50;;;;;;;15.40;13.38;;;0.30;89.20;;;;;;5073295;28;20220;-68
2022/03/07 03:50:16;;;;;;;21.27;13.20;;;0.30;1.00;;;;;;5072090;28;20295;-69
2022/03/07 03:52:43;;;;;;;16.60;12.40;;;0.30;1.00;;;;;;5073093;28;20659;-68
2022/03/07 03:55:11;;;;;;;13.95;12.60;;;0.20;99.90;;;;;;5073284;28;20200;-68
2022/03/07 03:57:39;;;;;;;13.95;12.52;;;0.10;99.90;;;;;;5073222;28;20730;-68
2022/03/07 04:00:12;;;;;;;13.57;11.43;;;0.10;99.90;;;;;;5073049;28;20200;-68
2022/03/07 04:02:42;;;;;;;11.70;10.50;;;0.10;99.90;;;;;;5073211;28;20566;-68
2022/03/07 04:05:10;;;;;;;13.38;11.15;;;0.10;99.90;;;;;;5071274;28;20707;-68
2022/03/07 04:07:38;;;;;;;11.30;10.13;;;0.10;99.90;;;;;;5072527;28;20228;-68
2022/03/07 04:10:05;;;;;;;11.00;9.90;;;0.10;99.90;;;;;;5071727;28;20252;-68
2022/03/07 04:12:32;;;;;;;10.65;9.50;;;0.10;99.90;;;;;;5072734;28;20568;-68
2022/03/07 04:14:58;;;;;;;9.98;8.85;;;0.10;99.90;;;;;;5073064;28;20210;-68
2022/03/07 04:17:25;;;;;;;9.48;8.57;;;0.10;99.90;;;;;;5072996;28;20207;-68
2022/03/07 04:19:51;;;;;;;11.88;8.70;;;0.10;99.90;;;;;;5071325;28;20399;-68
2022/03/07 04:22:18;;;;;;;10.70;8.82;;;0.10;99.90;;;;;;5072898;28;20264;-68
2022/03/07 04:24:44;;;;;;;9.20;8.23;;;0.10;99.90;;;;;;5072861;28;20204;-68
2022/03/07 04:27:10;;;;;;;8.65;7.85;;;0.10;99.90;;;;;;5072819;28;20220;-68
2022/03/07 04:29:37;;;;;;;8.50;7.70;;;0.10;99.90;;;;;;5072671;28;20204;-68
2022/03/07 04:32:04;;;;;;;8.43;7.70;;;0.10;99.90;;;;;;5072348;28;20663;-68
2022/03/07 04:34:30;;;;;;;8.05;7.25;;;0.10;99.90;;;;;;5072419;28;20200;-68
2022/03/07 04:36:56;;;;;;;9.35;7.70;;;0.00;99.90;;;;;;5071256;28;20200;-68
2022/03/07 04:39:23;;;;;;;9.75;7.70;;;0.10;99.90;;;;;;5072492;28;20211;-68
2022/03/07 04:41:50;;;;;;;10.30;7.00;;;0.10;99.90;;;;;;5072653;28;20200;-68
2022/03/07 04:44:16;;;;;;;8.10;7.30;;;0.10;99.90;;;;;;5071030;28;20701;-68
2022/03/07 04:46:43;;;;;;;7.30;6.70;;;0.10;99.90;;;;;;5072223;28;20207;-68
2022/03/07 04:49:11;;;;;;;7.65;6.90;;;0.10;99.90;;;;;;5072371;28;20204;-68
2022/03/07 04:51:40;;;;;;;7.82;7.03;;;0.20;99.90;;;;;;5072412;28;20253;-68
2022/03/07 04:54:06;;;;;;;8.90;6.57;;;0.20;99.90;;;;;;5071141;28;20200;-68
2022/03/07 04:56:33;;;;;;;8.75;8.02;;;0.20;99.90;;;;;;5073773;28;20208;-68
2022/03/07 04:58:59;;;;;;;9.20;7.22;;;0.20;99.90;;;;;;5076464;28;20603;-69
2022/03/07 05:01:26;;;;;;;8.95;8.05;;;0.20;99.90;;;;;;5076096;28;20197;-68
2022/03/07 05:03:52;;;;;;;7.88;7.18;;;0.20;99.90;;;;;;5076245;28;20256;-68
2022/03/07 05:06:18;;;;;;;10.88;7.95;;;0.20;99.90;;;;;;5075757;28;20231;-68
2022/03/07 05:08:45;;;;;;;8.02;6.82;;;0.20;99.90;;;;;;5075905;28;20223;-68
2022/03/07 05:11:11;;;;;;;7.10;6.50;;;0.20;99.90;;;;;;5075929;28;20211;-68
2022/03/07 05:13:38;;;;;;;8.85;6.60;;;0.30;99.90;;;;;;5074645;28;20204;-67
2022/03/07 05:16:07;;;;;;;7.47;6.88;;;0.30;99.90;;;;;;5076012;28;20261;-68
2022/03/07 05:18:33;;;;;;;7.32;6.78;;;0.30;99.90;;;;;;5075915;28;20204;-68
2022/03/07 05:20:59;;;;;;;6.97;6.47;;;0.40;99.90;;;;;;5076046;28;20264;-67
2022/03/07 05:23:26;;;;;;;8.57;7.70;;;0.40;99.90;;;;;;5076074;28;20261;-67
2022/03/07 05:25:52;;;;;;;7.30;6.72;;;0.40;99.90;;;;;;5076041;28;20204;-67
2022/03/07 05:28:19;;;;;;;8.00;7.40;;;0.40;99.90;;;;;;5074506;28;20274;-67
2022/03/07 05:30:45;;;;;;;7.50;6.90;;;0.40;99.90;;;;;;5075794;28;20192;-67
2022/03/07 05:33:12;;;;;;;8.40;7.60;;;0.50;99.90;;;;;;5075117;28;20203;-67
2022/03/07 05:35:38;;;;;;;10.50;7.57;;;0.50;99.90;;;;;;5075828;28;20561;-67
2022/03/07 05:38:05;;;;;;;7.65;6.90;;;0.50;99.90;;;;;;5075419;28;20208;-68
2022/03/07 05:40:31;;;;;;;20.85;7.40;;;0.40;99.90;;;;;;5075785;28;20199;-67
2022/03/07 05:42:57;;;;;;;10.00;8.05;;;0.40;99.90;;;;;;5075490;28;20200;-67
2022/03/07 05:45:24;;;;;;;8.13;7.07;;;0.40;99.90;;;;;;5074099;28;20732;-69
2022/03/07 05:47:50;;;;;;;9.40;7.20;;;0.30;99.90;;;;;;5075494;28;20220;-70
2022/03/07 05:50:17;;;;;;;7.50;6.90;;;0.40;99.90;;;;;;5075276;28;20204;-69
2022/03/07 05:52:43;;;;;;;7.30;6.60;;;0.40;99.90;;;;;;5075759;28;20257;-69
2022/03/07 05:55:11;;;;;;;9.18;7.53;;;0.30;99.90;;;;;;5076606;28;20655;-69
2022/03/07 05:57:38;;;;;;;7.57;6.85;;;0.40;99.90;;;;;;5077815;28;20204;-69
2022/03/07 06:00:06;;;;;;;8.00;7.30;;;0.40;99.90;;;;;;5077554;28;20599;-69
2022/03/07 06:02:33;;;;;;;8.32;7.53;;;0.40;99.90;;;;;;5076360;28;20204;-69
2022/03/07 06:04:59;;;;;;;8.75;8.05;;;0.40;99.90;;;;;;5076536;28;20643;-70
2022/03/07 06:07:26;;;;;;;7.60;7.00;;;0.40;99.90;;;;;;5077680;28;20270;-68
2022/03/07 06:09:52;;;;;;;8.00;6.72;;;0.40;99.90;;;;;;5076882;28;20613;-69
2022/03/07 06:12:19;;;;;;;7.32;6.72;;;0.40;99.90;;;;;;5077753;28;20196;-71
2022/03/07 06:14:45;;;;;;;9.82;7.07;;;0.40;99.90;;;;;;5077670;28;20196;-70
2022/03/07 06:17:12;;;;;;;7.47;6.72;;;0.40;99.90;;;;;;5077133;28;20212;-70
2022/03/07 06:19:38;;;;;;;17.73;9.00;;;0.40;99.90;;;;;;5077220;28;20257;-70
2022/03/07 06:22:05;;;;;;;10.27;7.22;;;0.40;99.90;;;;;;5075423;28;20203;-69
2022/03/07 06:24:31;;;;;;;8.15;7.40;;;0.40;99.90;;;;;;5076828;28;20211;-70
2022/03/07 06:26:57;;;;;;;9.23;7.60;;;0.30;99.90;;;;;;5077531;28;20210;-68
2022/03/07 06:29:24;;;;;;;8.55;7.38;;;0.30;99.90;;;;;;5077321;28;20188;-69
2022/03/07 06:31:50;;;;;;;7.15;6.45;;;0.30;99.90;;;;;;5077125;28;20196;-69
2022/03/07 06:34:17;;;;;;;9.18;8.27;;;0.40;99.90;;;;;;5077243;28;20196;-69
2022/03/07 06:36:43;;;;;;;8.40;7.60;;;0.40;99.90;;;;;;5076952;28;20203;-69
2022/03/07 06:39:10;;;;;;;9.07;8.20;;;0.50;99.90;;;;;;5076072;28;20611;-70
2022/03/07 06:41:36;;;;;;;9.20;8.40;;;0.60;99.90;;;;;;5076476;28;20203;-70
2022/03/07 06:44:03;;;;;;;10.05;9.05;;;0.70;99.90;;;;;;5077220;28;20238;-70
2022/03/07 06:46:29;;;;;;;9.13;8.13;;;0.70;99.90;;;;;;5077541;28;20199;-70
2022/03/07 06:48:56;;;;;;;9.50;8.60;;;0.70;99.90;;;;;;5075534;28;20242;-69
2022/03/07 06:51:23;;;;;;;9.13;8.32;;;0.70;99.90;;;;;;5076609;28;20203;-68
2022/03/07 06:53:49;;;;;;;9.23;8.32;;;0.80;99.90;;;;;;5076423;28;20222;-70
2022/03/07 06:56:17;;;;;;;9.63;8.70;;;0.80;99.90;;;;;;5074262;28;20207;-69
2022/03/07 06:58:46;;;;;;;8.75;7.95;;;0.80;99.90;;;;;;5074080;28;20203;-68
2022/03/07 07:01:12;;;;;;;9.27;8.48;;;0.80;99.90;;;;;;5073805;28;20212;-69
2022/03/07 07:03:38;;;;;;;10.98;9.07;;;0.80;99.90;;;;;;5074083;28;20203;-69
2022/03/07 07:06:05;;;;;;;13.27;8.60;;;0.80;99.90;;;;;;5072518;28;20727;-69
2022/03/07 07:08:32;;;;;;;11.25;8.65;;;0.80;99.90;;;;;;5074132;28;20577;-69
2022/03/07 07:10:58;;;;;;;12.52;8.32;;;0.80;99.90;;;;;;5073549;28;20664;-70
2022/03/07 07:13:26;;;;;;;9.43;8.55;;;0.80;99.90;;;;;;5074362;28;20200;-69
2022/03/07 07:15:55;;;;;;;10.93;9.93;;;1.00;99.90;;;;;;5073539;28;20264;-69
2022/03/07 07:18:22;;;;;;;10.63;8.45;;;1.10;99.90;;;;;;5073559;28;20238;-70
2022/03/07 07:20:52;;;;;;;12.20;9.50;;;1.10;99.90;;;;;;5071640;28;20206;-70
2022/03/07 07:23:19;;;;;;;9.25;8.35;;;1.10;99.90;;;;;;5072766;28;20234;-69
2022/03/07 07:25:46;;;;;;;13.32;10.05;;;1.20;99.90;;;;;;5073450;28;20217;-69
2022/03/07 07:28:14;;;;;;;14.85;9.05;;;1.30;99.90;;;;;;5073680;28;20212;-70
2022/03/07 07:30:41;;;;;;;11.48;9.15;;;1.30;99.90;;;;;;5073374;28;20192;-69
2022/03/07 07:33:07;;;;;;;11.13;9.80;;;1.30;99.90;;;;;;5073163;28;20619;-69
2022/03/07 07:35:36;;;;;;;12.82;9.75;;;1.50;99.90;;;;;;5073471;28;20206;-69
2022/03/07 07:38:04;;;;;;;11.32;10.23;;;1.50;99.90;;;;;;5073071;28;20204;-69
2022/03/07 07:40:31;;;;;;;9.00;8.30;;;1.60;99.90;;;;;;5071725;28;20204;-69
2022/03/07 07:42:58;;;;;;;10.38;9.35;;;1.50;99.90;;;;;;5073278;28;20285;-69
2022/03/07 07:45:24;;;;;;;10.15;9.27;;;1.50;99.90;;;;;;5073405;28;20607;-69
2022/03/07 07:47:51;;;;;;;9.73;8.82;;;1.40;99.90;;;;;;5072810;28;20230;-70
2022/03/07 07:50:19;;;;;;;7.80;7.00;;;1.50;99.90;;;;;;5072834;28;20709;-69
2022/03/07 07:52:46;;;;;;;8.57;7.88;;;1.50;99.90;;;;;;5072980;28;20576;-70
2022/03/07 07:55:12;;;;;;;9.40;8.52;;;1.60;99.90;;;;;;5072130;28;20196;-70
2022/03/07 07:57:39;;;;;;;11.23;10.13;;;1.50;99.90;;;;;;5073288;28;20203;-70
2022/03/07 08:00:07;;;;;;;12.60;9.15;;;1.50;99.90;;;;;;5073588;28;20511;-70
2022/03/07 08:02:34;;;;;;;10.77;9.63;;;1.60;99.90;;;;;;5072896;28;20599;-71
2022/03/07 08:05:00;;;;;;;10.90;9.90;;;1.80;99.90;;;;;;5072899;28;20231;-68
2022/03/07 08:07:27;;;;;;;9.18;8.38;;;1.90;99.90;;;;;;5072850;28;20349;-69
2022/03/07 08:09:54;;;;;;;10.02;9.05;;;1.90;99.90;;;;;;5072865;28;20203;-68
2022/03/07 08:12:20;;;;;;;9.02;8.32;;;1.80;99.90;;;;;;5073093;28;20204;-70
2022/03/07 08:14:47;;;;;;;11.05;10.02;;;1.90;99.90;;;;;;5072957;28;20208;-69
2022/03/07 08:17:15;;;;;;;11.02;10.02;;;1.70;99.90;;;;;;5073347;28;20200;-70
2022/03/07 08:19:41;;;;;;;11.40;10.30;;;1.80;99.90;;;;;;5072145;28;20211;-69
2022/03/07 08:22:08;;;;;;;10.90;9.90;;;1.90;99.90;;;;;;5072976;28;20203;-69
2022/03/07 08:24:34;;;;;;;10.38;9.27;;;1.90;99.90;;;;;;5073046;28;20593;-70
2022/03/07 08:27:01;;;;;;;10.38;9.38;;;1.90;99.90;;;;;;5073060;28;20204;-70
2022/03/07 08:29:27;;;;;;;10.85;9.82;;;1.90;99.90;;;;;;5073014;28;20215;-69
2022/03/07 08:31:53;;;;;;;10.10;9.07;;;1.90;99.90;;;;;;5075127;28;20256;-69
2022/03/07 08:34:20;;;;;;;12.73;9.65;;;1.90;99.90;;;;;;5077095;28;20200;-70
2022/03/07 08:36:46;;;;;;;10.95;9.77;;;1.90;99.90;;;;;;5077420;28;20196;-69
2022/03/07 08:39:12;;;;;;;10.60;9.60;;;2.00;99.90;;;;;;5076855;28;20234;-70
2022/03/07 08:41:39;;;;;;;10.70;9.77;;;2.20;99.90;;;;;;5075530;28;20207;-69
2022/03/07 08:44:05;;;;;;;11.88;10.60;;;2.10;99.90;;;;;;5076618;28;20257;-70
2022/03/07 08:46:32;;;;;;;11.70;10.65;;;2.20;99.90;;;;;;5077000;28;20215;-70
2022/03/07 08:48:58;;;;;;;11.30;10.30;;;2.20;99.90;;;;;;5076461;28;20630;-69
2022/03/07 08:51:24;;;;;;;12.65;11.48;;;2.30;99.90;;;;;;5076559;28;20206;-69
2022/03/07 08:53:51;;;;;;;11.05;9.60;;;2.40;99.90;;;;;;5076513;28;20206;-69
2022/03/07 08:56:18;;;;;;;12.27;11.13;;;2.60;99.90;;;;;;5076493;28;20208;-70
2022/03/07 08:58:44;;;;;;;12.32;11.00;;;2.30;99.90;;;;;;5076691;28;20204;-69
2022/03/07 09:01:11;;;;;;;12.57;11.30;;;2.40;99.90;;;;;;5076560;28;20215;-69
2022/03/07 09:03:38;;;;;;;11.98;10.77;;;2.50;99.90;;;;;;5076229;28;20208;-69
2022/03/07 09:06:04;;;;;;;13.25;11.27;;;2.80;99.90;;;;;;5076141;28;20243;-69
2022/03/07 09:08:31;;;;;;;13.38;11.50;;;2.80;99.90;;;;;;5076199;28;20748;-69
2022/03/07 09:10:57;;;;;;;11.93;10.77;;;2.90;99.90;;;;;;5076430;28;20256;-70
2022/03/07 09:13:24;;;;;;;11.88;10.82;;;2.90;99.90;;;;;;5076207;28;20203;-69
2022/03/07 09:15:50;;;;;;;12.07;10.88;;;2.80;99.90;;;;;;5075964;28;20728;-70
2022/03/07 09:18:17;;;;;;;13.25;11.85;;;2.70;99.90;;;;;;5075738;28;20195;-69
2022/03/07 09:20:43;;;;;;;12.45;11.35;;;2.70;99.90;;;;;;5076034;28;20204;-70
2022/03/07 09:23:09;;;;;;;13.35;11.98;;;2.90;99.90;;;;;;5074906;28;20685;-69
2022/03/07 09:25:36;;;;;;;13.15;11.75;;;3.20;99.90;;;;;;5076182;28;20200;-69
2022/03/07 09:28:05;;;;;;;22.40;12.15;;;3.30;99.90;;;;;;5076060;28;20687;-69
2022/03/07 09:30:32;;;;;;;12.95;11.85;;;3.30;99.90;;;;;;5075683;28;20203;-69
2022/03/07 09:33:03;;;;;;;12.85;11.65;;;3.10;99.90;;;;;;5075928;28;20203;-69
2022/03/07 09:35:31;;;;;;;13.88;11.05;;;2.80;99.90;;;;;;5076229;28;20204;-69
2022/03/07 09:37:57;;;;;;;12.90;11.80;;;2.80;99.90;;;;;;5075954;28;20207;-69
2022/03/07 09:40:23;;;;;;;11.93;10.82;;;2.70;99.90;;;;;;5075854;28;20299;-69
2022/03/07 09:42:51;;;;;;;13.63;12.32;;;2.80;99.90;;;;;;5074861;28;20208;-69
2022/03/07 09:45:19;;;;;;;21.05;11.93;;;3.00;99.90;;;;;;5074416;28;20690;-69
2022/03/07 09:47:48;;;;;;;14.18;11.77;;;3.20;99.90;;;;;;5075365;28;20205;-69
2022/03/07 09:50:14;;;;;;;12.30;11.30;;;3.30;99.90;;;;;;5075552;28;20592;-69
2022/03/07 09:52:44;;;;;;;12.93;11.63;;;2.90;99.90;;;;;;5075519;28;20199;-70
2022/03/07 09:55:13;;;;;;;12.57;11.40;;;2.90;99.90;;;;;;5075426;28;20694;-69
2022/03/07 09:57:41;;;;;;;12.50;11.20;;;3.10;99.90;;;;;;5075249;28;20542;-69
2022/03/07 10:00:08;;;;;;;13.93;12.70;;;3.30;99.90;;;;;;5075576;28;20268;-70
2022/03/07 10:02:35;;;;;;;14.30;12.13;;;3.20;99.90;;;;;;5075425;28;20613;-69
2022/03/07 10:05:03;;;;;;;12.52;11.32;;;3.60;99.90;;;;;;5074988;28;20273;-69
2022/03/07 10:07:41;;;;;;;12.45;11.30;;;4.00;99.90;;;;;;5075259;28;20231;-69
2022/03/07 10:10:09;;;;;;;16.80;12.55;;;4.20;99.90;;;;;;5075109;28;20628;-70
2022/03/07 10:12:48;;;;;;;12.55;11.18;;;4.10;99.90;;;;;;5075351;28;20252;-70
2022/03/07 10:15:17;;;;;;;14.05;12.63;;;3.80;99.90;;;;;;5075630;28;20184;-70
2022/03/07 10:17:52;;;;;;;13.35;11.95;;;3.60;99.90;;;;;;5075221;28;20200;-70
2022/03/07 10:20:21;;;;;;;14.40;11.55;;;3.50;99.90;;;;;;5074978;28;20591;-71
2022/03/07 10:22:57;;;;;;;14.70;12.10;;;3.30;99.90;;;;;;5075028;28;20265;-69
2022/03/07 10:25:26;;;;;;;13.18;11.85;;;3.30;99.90;;;;;;5074973;28;20238;-69
2022/03/07 10:27:54;;;;;;;12.95;11.73;;;3.50;99.90;;;;;;5074843;28;20675;-70
2022/03/07 10:30:23;;;;;;;13.25;12.05;;;3.80;99.90;;;;;;5075379;28;20636;-70
2022/03/07 10:32:59;;;;;;;12.95;11.45;;;3.80;99.90;;;;;;5075557;28;20200;-70
2022/03/07 10:35:33;;;;;;;16.45;13.30;;;3.70;99.90;;;;;;5074410;28;20222;-70
2022/03/07 10:38:03;;;;;;;13.55;12.35;;;3.80;99.90;;;;;;5075048;28;20545;-70
2022/03/07 10:40:31;;;;;;;12.23;11.13;;;3.90;99.90;;;;;;5074354;28;20204;-70
2022/03/07 10:43:00;;;;;;;14.75;13.35;;;3.70;99.90;;;;;;5074423;28;20200;-70
2022/03/07 10:45:29;;;;;;;14.07;12.55;;;3.90;99.90;;;;;;5074693;28;20679;-70
2022/03/07 10:48:01;;;;;;;13.82;12.43;;;4.00;99.90;;;;;;5075116;28;20709;-70
2022/03/07 10:50:29;;;;;;;14.95;13.60;;;4.30;99.90;;;;;;5075009;28;20621;-70
2022/03/07 10:53:05;;;;;;;13.48;12.38;;;4.60;99.90;;;;;;5074623;28;20211;-70
2022/03/07 10:55:33;;;;;;;13.45;12.25;;;4.40;99.90;;;;;;5074164;28;20233;-70
2022/03/07 10:58:11;;;;;;;14.35;13.15;;;3.90;99.90;;;;;;5074231;28;20204;-70
2022/03/07 11:00:53;;;;;;;14.35;11.57;;;4.20;99.90;;;;;;5074240;28;20677;-70
2022/03/07 11:03:22;;;;;;;13.77;12.52;;;4.40;99.90;;;;;;5073749;28;20207;-69
2022/03/07 11:05:50;;;;;;;12.55;11.45;;;3.90;99.90;;;;;;5073520;28;20232;-70
2022/03/07 11:08:20;;;;;;;14.95;13.38;;;4.00;99.90;;;;;;5073864;28;20219;-69
2022/03/07 11:10:51;;;;;;;14.65;12.98;;;4.60;99.90;;;;;;5073877;28;20206;-69
2022/03/07 11:13:20;;;;;;;16.48;13.00;;;4.60;99.90;;;;;;5073524;28;20196;-69
2022/03/07 11:15:47;;;;;;;13.73;12.52;;;4.60;99.90;;;;;;5073985;28;20227;-70
2022/03/07 11:18:15;;;;;;;13.25;11.57;;;4.90;99.90;;;;;;5073741;28;20227;-70
2022/03/07 11:20:44;;;;;;;13.95;12.65;;;6.00;99.90;;;;;;5073910;28;20257;-70
2022/03/07 11:23:12;;;;;;;13.10;11.80;;;6.20;99.90;;;;;;5073567;28;20200;-70
2022/03/07 11:25:40;;;;;;;17.00;14.27;;;6.30;99.90;;;;;;5073555;28;20260;-70
2022/03/07 11:28:07;;;;;;;14.88;13.40;;;6.20;99.90;;;;;;5073500;28;20249;-70
2022/03/07 11:30:39;;;;;;;14.13;12.93;;;5.50;99.90;;;;;;5073534;28;20204;-70
2022/03/07 11:33:14;;;;;;;13.88;12.70;;;5.50;99.90;;;;;;5073425;28;20550;-70
2022/03/07 11:35:45;;;;;;;12.68;11.57;;;5.60;99.90;;;;;;5073158;28;20525;-70
2022/03/07 11:38:31;;;;;;;13.23;11.85;;;5.90;99.90;;;;;;5073409;28;20204;-69
2022/03/07 11:41:12;;;;;;;13.52;12.32;;;5.10;99.90;;;;;;5073322;28;20226;-70
2022/03/07 11:44:00;;;;;;;14.05;12.88;;;5.10;99.90;;;;;;5073002;28;20180;-70
2022/03/07 11:46:32;;;;;;;13.23;12.02;;;5.70;99.90;;;;;;5073427;28;20191;-70
2022/03/07 11:48:59;;;;;;;13.23;11.30;;;6.10;99.90;;;;;;5073399;28;20224;-70
2022/03/07 11:51:28;;;;;;;13.45;12.15;;;6.30;99.90;;;;;;5071928;28;20702;-70
2022/03/07 11:53:56;;;;;;;14.05;12.88;;;6.90;99.90;;;;;;5073540;28;20564;-70
2022/03/07 11:56:31;;;;;;;11.57;10.57;;;6.60;99.90;;;;;;5073165;28;20192;-70
2022/03/07 11:58:59;;;;;;;11.20;10.30;;;7.20;99.90;;;;;;5073042;28;20199;-70
2022/03/07 12:01:27;;;;;;;14.55;13.32;;;6.80;99.90;;;;;;5073534;28;20207;-70
2022/03/07 12:03:54;;;;;;;15.85;13.18;;;6.60;99.90;;;;;;5073850;28;20214;-70
2022/03/07 12:06:22;;;;;;;15.18;13.88;;;6.10;99.90;;;;;;5072329;28;20235;-70
2022/03/07 12:09:00;;;;;;;16.92;14.23;;;7.00;99.90;;;;;;5073042;28;20224;-70
2022/03/07 12:11:32;;;;;;;13.85;12.65;;;6.80;99.90;;;;;;5072898;28;20184;-71
2022/03/07 12:14:05;;;;;;;13.93;12.52;;;6.60;99.90;;;;;;5072970;28;20257;-70
2022/03/07 12:16:33;;;;;;;15.25;13.90;;;7.10;99.90;;;;;;5073428;28;20257;-70
2022/03/07 12:19:06;;;;;;;17.10;15.30;;;7.20;99.90;;;;;;5072745;28;20210;-70
2022/03/07 12:21:35;;;;;;;15.73;14.43;;;7.20;99.90;;;;;;5072821;28;20207;-70
2022/03/07 12:24:02;;;;;;;18.35;15.20;;;7.10;99.90;;;;;;5073244;28;20237;-70
2022/03/07 12:26:28;;;;;;;14.93;13.35;;;7.40;99.90;;;;;;5074070;28;20199;-70
2022/03/07 12:28:54;;;;;;;15.45;14.18;;;7.90;99.90;;;;;;5072686;28;20281;-70
2022/03/07 12:31:21;;;;;;;13.63;12.52;;;7.60;99.90;;;;;;5071568;28;20624;-70
2022/03/07 12:33:48;;;;;;;16.63;14.93;;;7.80;99.90;;;;;;5072811;28;20579;-70
2022/03/07 12:36:16;;;;;;;15.73;14.25;;;7.90;99.90;;;;;;5072027;28;20208;-70
2022/03/07 12:38:54;;;;;;;17.70;16.00;;;8.00;99.90;;;;;;5073414;28;20196;-70
2022/03/07 12:41:31;;;;;;;17.27;15.70;;;7.10;99.90;;;;;;5073541;28;20199;-70
2022/03/07 12:43:58;;;;;;;15.70;14.23;;;7.70;99.90;;;;;;5073443;28;20208;-71
2022/03/07 12:46:25;;;;;;;16.33;14.82;;;8.30;99.90;;;;;;5072770;28;20606;-71